sensor_id;sensor_type;location;lat;lon;timestamp;P1;durP1;ratioP1;P2;durP2;ratioP2
20161;SDS011;51382;53.180;15.414;2023-02-07T00:03:07;71.00;;;21.00;;
20161;SDS011;51382;53.180;15.414;2023-02-07T00:18:18;101.90;;;32.50;;
20161;SDS011;51382;53.180;15.414;2023-02-07T00:33:30;61.20;;;18.70;;
20161;SDS011;51382;53.180;15.414;2023-02-07T00:48:42;78.40;;;19.50;;
20161;SDS011;51382;53.180;15.414;2023-02-07T01:03:53;73.00;;;19.10;;
20161;SDS011;51382;53.180;15.414;2023-02-07T01:19:06;77.30;;;21.50;;
20161;SDS011;51382;53.180;15.414;2023-02-07T01:34:18;81.80;;;24.20;;
20161;SDS011;51382;53.180;15.414;2023-02-07T01:49:33;107.40;;;33.80;;
20161;SDS011;51382;53.180;15.414;2023-02-07T02:04:45;91.30;;;25.10;;
20161;SDS011;51382;53.180;15.414;2023-02-07T02:20:16;173.10;;;52.60;;
20161;SDS011;51382;53.180;15.414;2023-02-07T02:35:36;102.60;;;27.30;;
20161;SDS011;51382;53.180;15.414;2023-02-07T02:50:49;108.30;;;28.30;;
20161;SDS011;51382;53.180;15.414;2023-02-07T03:06:09;134.60;;;39.90;;
20161;SDS011;51382;53.180;15.414;2023-02-07T03:21:27;175.60;;;54.50;;
20161;SDS011;51382;53.180;15.414;2023-02-07T03:36:45;112.40;;;35.60;;
20161;SDS011;51382;53.180;15.414;2023-02-07T03:51:59;111.30;;;35.30;;
20161;SDS011;51382;53.180;15.414;2023-02-07T04:07:11;95.10;;;34.30;;
20161;SDS011;51382;53.180;15.414;2023-02-07T04:22:23;92.70;;;28.80;;
20161;SDS011;51382;53.180;15.414;2023-02-07T04:37:29;86.50;;;26.40;;
20161;SDS011;51382;53.180;15.414;2023-02-07T04:52:40;90.50;;;28.00;;
20161;SDS011;51382;53.180;15.414;2023-02-07T05:07:51;109.80;;;35.60;;
20161;SDS011;51382;53.180;15.414;2023-02-07T05:23:03;99.30;;;31.80;;
20161;SDS011;51382;53.180;15.414;2023-02-07T05:38:16;93.30;;;30.90;;
20161;SDS011;51382;53.180;15.414;2023-02-07T05:53:27;106.80;;;35.30;;
20161;SDS011;51382;53.180;15.414;2023-02-07T06:08:38;139.60;;;49.40;;
20161;SDS011;51382;53.180;15.414;2023-02-07T06:23:49;156.10;;;55.30;;
20161;SDS011;51382;53.180;15.414;2023-02-07T06:39:03;161.80;;;58.20;;
20161;SDS011;51382;53.180;15.414;2023-02-07T06:54:14;145.30;;;52.80;;
20161;SDS011;51382;53.180;15.414;2023-02-07T07:09:21;132.90;;;42.30;;
20161;SDS011;51382;53.180;15.414;2023-02-07T07:24:32;119.70;;;40.60;;
20161;SDS011;51382;53.180;15.414;2023-02-07T07:39:43;103.50;;;36.90;;
20161;SDS011;51382;53.180;15.414;2023-02-07T07:54:55;165.50;;;70.30;;
20161;SDS011;51382;53.180;15.414;2023-02-07T08:10:01;137.50;;;53.00;;
20161;SDS011;51382;53.180;15.414;2023-02-07T08:25:14;72.00;;;22.10;;
20161;SDS011;51382;53.180;15.414;2023-02-07T08:40:25;84.30;;;21.90;;
20161;SDS011;51382;53.180;15.414;2023-02-07T08:55:38;67.20;;;18.10;;
20161;SDS011;51382;53.180;15.414;2023-02-07T09:10:49;76.10;;;19.50;;
20161;SDS011;51382;53.180;15.414;2023-02-07T09:26:04;69.20;;;18.40;;
20161;SDS011;51382;53.180;15.414;2023-02-07T09:41:21;67.40;;;19.10;;
20161;SDS011;51382;53.180;15.414;2023-02-07T09:56:35;70.10;;;18.00;;
20161;SDS011;51382;53.180;15.414;2023-02-07T10:11:52;67.10;;;18.40;;
20161;SDS011;51382;53.180;15.414;2023-02-07T10:27:10;64.10;;;18.00;;
20161;SDS011;51382;53.180;15.414;2023-02-07T10:42:17;65.20;;;16.90;;
20161;SDS011;51382;53.180;15.414;2023-02-07T10:57:30;59.40;;;14.10;;
20161;SDS011;51382;53.180;15.414;2023-02-07T11:12:47;52.80;;;15.40;;
20161;SDS011;51382;53.180;15.414;2023-02-07T11:27:59;57.50;;;18.50;;
20161;SDS011;51382;53.180;15.414;2023-02-07T11:43:13;89.40;;;30.20;;
20161;SDS011;51382;53.180;15.414;2023-02-07T11:58:30;107.60;;;32.00;;
20161;SDS011;51382;53.180;15.414;2023-02-07T12:13:45;71.00;;;24.60;;
20161;SDS011;51382;53.180;15.414;2023-02-07T12:29:09;78.90;;;17.60;;
20161;SDS011;51382;53.180;15.414;2023-02-07T12:44:33;96.80;;;20.60;;
20161;SDS011;51382;53.180;15.414;2023-02-07T12:59:54;80.00;;;21.60;;
20161;SDS011;51382;53.180;15.414;2023-02-07T13:15:15;105.40;;;23.90;;
20161;SDS011;51382;53.180;15.414;2023-02-07T13:30:32;90.40;;;26.30;;
20161;SDS011;51382;53.180;15.414;2023-02-07T13:45:51;73.80;;;20.50;;
20161;SDS011;51382;53.180;15.414;2023-02-07T14:01:17;50.00;;;13.50;;
20161;SDS011;51382;53.180;15.414;2023-02-07T14:47:37;67.20;;;12.30;;
20161;SDS011;51382;53.180;15.414;2023-02-07T15:02:54;75.00;;;14.60;;
20161;SDS011;51382;53.180;15.414;2023-02-07T15:18:10;63.00;;;17.00;;
20161;SDS011;51382;53.180;15.414;2023-02-07T15:33:20;69.70;;;16.80;;
20161;SDS011;51382;53.180;15.414;2023-02-07T15:48:43;82.10;;;20.60;;
20161;SDS011;51382;53.180;15.414;2023-02-07T16:03:52;109.70;;;40.90;;
20161;SDS011;51382;53.180;15.414;2023-02-07T16:19:14;224.70;;;83.10;;
20161;SDS011;51382;53.180;15.414;2023-02-07T16:34:26;281.20;;;106.70;;
20161;SDS011;51382;53.180;15.414;2023-02-07T16:49:39;149.90;;;50.50;;
20161;SDS011;51382;53.180;15.414;2023-02-07T17:04:54;121.60;;;48.40;;
20161;SDS011;51382;53.180;15.414;2023-02-07T17:20:00;162.40;;;55.40;;
20161;SDS011;51382;53.180;15.414;2023-02-07T17:35:07;97.90;;;34.00;;
20161;SDS011;51382;53.180;15.414;2023-02-07T17:50:21;136.10;;;38.20;;
20161;SDS011;51382;53.180;15.414;2023-02-07T18:05:33;123.40;;;32.10;;
20161;SDS011;51382;53.180;15.414;2023-02-07T18:20:39;139.10;;;37.90;;
20161;SDS011;51382;53.180;15.414;2023-02-07T18:35:56;105.60;;;31.60;;
20161;SDS011;51382;53.180;15.414;2023-02-07T18:51:09;148.00;;;52.90;;
20161;SDS011;51382;53.180;15.414;2023-02-07T19:06:21;117.30;;;46.50;;
20161;SDS011;51382;53.180;15.414;2023-02-07T19:21:33;173.50;;;65.60;;
20161;SDS011;51382;53.180;15.414;2023-02-07T19:36:44;259.90;;;84.00;;
20161;SDS011;51382;53.180;15.414;2023-02-07T19:51:50;156.60;;;50.20;;
20161;SDS011;51382;53.180;15.414;2023-02-07T20:07:02;141.70;;;54.30;;
20161;SDS011;51382;53.180;15.414;2023-02-07T20:22:13;149.20;;;48.20;;
20161;SDS011;51382;53.180;15.414;2023-02-07T20:37:19;129.70;;;43.70;;
20161;SDS011;51382;53.180;15.414;2023-02-07T20:52:26;132.60;;;56.30;;
20161;SDS011;51382;53.180;15.414;2023-02-07T21:07:32;131.40;;;50.90;;
20161;SDS011;51382;53.180;15.414;2023-02-07T21:22:45;149.50;;;64.00;;
20161;SDS011;51382;53.180;15.414;2023-02-07T21:37:59;202.50;;;74.60;;
20161;SDS011;51382;53.180;15.414;2023-02-07T21:53:14;157.70;;;77.30;;
20161;SDS011;51382;53.180;15.414;2023-02-07T22:08:26;93.30;;;41.40;;
20161;SDS011;51382;53.180;15.414;2023-02-07T22:23:32;121.30;;;55.90;;
20161;SDS011;51382;53.180;15.414;2023-02-07T22:38:45;94.20;;;38.60;;
20161;SDS011;51382;53.180;15.414;2023-02-07T22:53:57;115.70;;;35.90;;
20161;SDS011;51382;53.180;15.414;2023-02-07T23:09:11;76.00;;;33.90;;
20161;SDS011;51382;53.180;15.414;2023-02-07T23:24:22;83.20;;;31.70;;
20161;SDS011;51382;53.180;15.414;2023-02-07T23:39:28;70.80;;;30.80;;
20161;SDS011;51382;53.180;15.414;2023-02-07T23:54:40;71.90;;;34.20;;
